createdAt,value
2022-09-26T00:01:37.277Z,92.62
2022-09-26T00:04:31.766Z,92.68
2022-09-26T00:07:00.610Z,92.64
2022-09-26T00:09:29.377Z,92.70
2022-09-26T00:11:57.052Z,92.66
2022-09-26T00:14:28.201Z,92.54
2022-09-26T00:16:56.559Z,92.53
2022-09-26T00:19:24.569Z,92.65
2022-09-26T00:21:52.743Z,92.53
2022-09-26T00:24:20.419Z,92.54
2022-09-26T00:26:48.256Z,92.49
2022-09-26T00:29:16.378Z,92.52
2022-09-26T00:31:46.196Z,92.76
2022-09-26T00:34:15.723Z,92.84
2022-09-26T00:36:43.541Z,92.83
2022-09-26T00:39:14.429Z,92.94
2022-09-26T00:41:42.773Z,92.78
2022-09-26T00:44:38.379Z,92.79
2022-09-26T00:47:08.415Z,92.71
2022-09-26T00:49:39.439Z,92.44
2022-09-26T00:52:16.750Z,91.97
2022-09-26T00:54:48.078Z,91.94
2022-09-26T00:57:21.633Z,92.08
2022-09-26T00:59:55.542Z,91.98
2022-09-26T01:02:26.107Z,91.29
2022-09-26T01:04:54.605Z,91.40
2022-09-26T01:07:25.741Z,91.35
2022-09-26T01:09:54.324Z,91.33
2022-09-26T01:12:22.357Z,90.95
2022-09-26T01:14:53.606Z,90.66
2022-09-26T01:17:23.682Z,90.78
2022-09-26T01:20:24.476Z,90.74
2022-09-26T01:23:07.234Z,90.42
2022-09-26T01:25:58.939Z,90.47
2022-09-26T01:28:45.001Z,90.20
2022-09-26T01:31:21.226Z,90.41
2022-09-26T01:33:51.534Z,90.28
2022-09-26T01:36:30.915Z,90.00
2022-09-26T01:39:14.022Z,90.27
2022-09-26T01:42:20.162Z,90.29
2022-09-26T01:45:12.489Z,90.04
2022-09-26T01:48:09.538Z,90.43
2022-09-26T01:50:51.867Z,90.22
2022-09-26T01:53:19.438Z,90.17
2022-09-26T01:55:54.502Z,90.22
2022-09-26T01:58:29.693Z,90.20
2022-09-26T02:01:02.262Z,90.24
2022-09-26T02:03:37.381Z,89.66
2022-09-26T02:06:13.766Z,89.66
2022-09-26T02:08:43.414Z,89.49
2022-09-26T02:11:17.776Z,89.65
2022-09-26T02:13:52.961Z,89.78
2022-09-26T02:16:36.795Z,90.31
2022-09-26T02:19:11.456Z,90.32
2022-09-26T02:21:39.306Z,90.12
2022-09-26T02:24:07.125Z,90.20
2022-09-26T02:26:34.982Z,90.70
2022-09-26T02:29:03.181Z,90.50
2022-09-26T02:31:37.397Z,90.66
2022-09-26T02:34:06.257Z,90.84
2022-09-26T02:36:35.659Z,90.82
2022-09-26T02:39:03.386Z,90.96
2022-09-26T02:41:42.866Z,90.96
2022-09-26T02:44:49.310Z,91.18
2022-09-26T02:47:32.159Z,91.28
2022-09-26T02:50:26.518Z,91.07
2022-09-26T02:53:16.667Z,91.24
2022-09-26T02:55:56.127Z,91.38
2022-09-26T02:58:26.678Z,91.12
2022-09-26T03:01:22.061Z,91.25
2022-09-26T03:04:28.434Z,91.20
2022-09-26T03:07:04.159Z,91.08
2022-09-26T03:09:32.579Z,91.09
2022-09-26T03:12:03.028Z,91.06
2022-09-26T03:14:34.999Z,91.15
2022-09-26T03:17:04.197Z,91.07
2022-09-26T03:19:42.796Z,90.96
2022-09-26T03:22:10.843Z,91.18
2022-09-26T03:24:38.995Z,91.06
2022-09-26T03:27:07.338Z,91.02
2022-09-26T03:29:35.057Z,91.00
2022-09-26T03:32:03.526Z,90.79
2022-09-26T03:34:31.201Z,91.01
2022-09-26T03:36:58.926Z,91.13
2022-09-26T03:39:26.532Z,91.19
2022-09-26T03:41:54.653Z,91.01
2022-09-26T03:44:22.786Z,91.17
2022-09-26T03:46:50.438Z,91.26
2022-09-26T03:49:18.082Z,91.20
2022-09-26T03:51:45.752Z,91.20
2022-09-26T03:54:14.172Z,91.25
2022-09-26T03:56:42.325Z,91.30
2022-09-26T03:59:10.169Z,91.26
2022-09-26T04:01:37.764Z,91.42
2022-09-26T04:04:06.201Z,91.54
2022-09-26T04:06:33.843Z,91.50
2022-09-26T04:09:01.640Z,91.55
2022-09-26T04:11:29.332Z,91.38
2022-09-26T04:13:57.018Z,91.56
2022-09-26T04:16:25.295Z,91.74
2022-09-26T04:18:57.689Z,91.65
2022-09-26T04:21:28.016Z,91.79
2022-09-26T04:23:55.966Z,91.75
2022-09-26T04:26:24.800Z,91.67
2022-09-26T04:28:55.849Z,92.15
2022-09-26T04:31:25.226Z,91.96
2022-09-26T04:33:52.863Z,91.86
2022-09-26T04:36:20.486Z,91.93
2022-09-26T04:38:48.316Z,92.03
2022-09-26T04:41:19.232Z,92.12
2022-09-26T04:43:47.318Z,91.92
2022-09-26T04:46:21.680Z,92.02
2022-09-26T04:48:55.433Z,92.15
2022-09-26T04:51:24.538Z,92.14
2022-09-26T04:53:53.010Z,91.85
2022-09-26T04:56:22.700Z,91.85
2022-09-26T04:58:50.694Z,91.82
2022-09-26T05:01:20.921Z,91.97
2022-09-26T05:03:48.704Z,91.77
2022-09-26T05:06:18.639Z,91.90
2022-09-26T05:08:47.882Z,91.90
2022-09-26T05:11:17.762Z,91.99
2022-09-26T05:13:49.052Z,91.78
2022-09-26T05:16:20.631Z,91.69
2022-09-26T05:18:53.112Z,91.66
2022-09-26T05:21:21.148Z,91.92
2022-09-26T05:24:08.051Z,91.98
2022-09-26T05:26:45.440Z,91.69
2022-09-26T05:29:13.370Z,91.77
2022-09-26T05:31:41.575Z,91.55
2022-09-26T05:34:16.905Z,90.99
2022-09-26T05:36:46.469Z,91.36
2022-09-26T05:39:32.734Z,91.39
2022-09-26T05:42:00.916Z,91.28
2022-09-26T05:44:29.402Z,91.12
2022-09-26T05:46:58.393Z,91.37
2022-09-26T05:49:27.009Z,91.28
2022-09-26T05:51:54.844Z,91.12
2022-09-26T05:54:22.535Z,91.18
2022-09-26T05:56:50.172Z,91.12
2022-09-26T05:59:17.767Z,91.41
2022-09-26T06:01:47.685Z,91.98
2022-09-26T06:04:15.331Z,92.10
2022-09-26T06:06:45.302Z,92.28
2022-09-26T06:09:12.986Z,92.67
2022-09-26T06:11:40.585Z,92.21
2022-09-26T06:14:08.221Z,91.87
2022-09-26T06:16:35.958Z,91.81
2022-09-26T06:19:03.710Z,91.72
2022-09-26T06:21:31.294Z,91.78
2022-09-26T06:23:58.991Z,91.81
2022-09-26T06:26:29.826Z,91.88
2022-09-26T06:29:01.210Z,91.89
2022-09-26T06:31:30.294Z,91.93
2022-09-26T06:33:58.282Z,91.83
2022-09-26T06:36:26.042Z,91.48
2022-09-26T06:38:55.387Z,91.27
2022-09-26T06:41:23.099Z,90.95
2022-09-26T06:43:51.104Z,91.31
2022-09-26T06:46:18.793Z,91.05
2022-09-26T06:48:46.577Z,90.89
2022-09-26T06:51:15.321Z,89.81
2022-09-26T06:53:44.468Z,90.52
2022-09-26T06:56:12.125Z,90.26
2022-09-26T06:58:40.373Z,90.49
2022-09-26T07:01:08.531Z,90.51
2022-09-26T07:03:40.470Z,90.18
2022-09-26T07:06:10.678Z,88.87
2022-09-26T07:09:01.118Z,88.90
2022-09-26T07:11:38.099Z,88.84
2022-09-26T07:14:17.939Z,87.83
2022-09-26T07:16:46.093Z,88.08
2022-09-26T07:19:14.065Z,87.89
2022-09-26T07:21:41.805Z,87.81
2022-09-26T07:24:09.779Z,87.90
2022-09-26T07:26:37.439Z,87.78
2022-09-26T07:29:05.150Z,87.69
2022-09-26T07:31:32.908Z,87.11
2022-09-26T07:34:00.581Z,87.02
2022-09-26T07:36:28.207Z,87.15
2022-09-26T07:38:55.827Z,86.22
2022-09-26T07:41:24.199Z,86.27
2022-09-26T07:46:58.024Z,85.25
2022-09-26T07:49:44.319Z,84.61
2022-09-26T07:52:12.335Z,84.44
2022-09-26T07:54:41.122Z,85.01
2022-09-26T07:57:08.805Z,84.18
2022-09-26T07:59:37.807Z,85.21
2022-09-26T08:02:05.512Z,85.28
2022-09-26T08:04:33.324Z,85.32
2022-09-26T08:07:00.956Z,85.01
2022-09-26T08:09:29.284Z,84.19
2022-09-26T08:11:57.395Z,84.00
2022-09-26T08:14:25.019Z,82.61
2022-09-26T08:16:57.057Z,82.38
2022-09-26T08:19:26.777Z,82.49
2022-09-26T08:21:54.508Z,83.19
2022-09-26T08:24:22.195Z,82.96
2022-09-26T08:26:49.892Z,82.40
2022-09-26T08:29:17.574Z,82.83
2022-09-26T08:31:47.041Z,82.31
2022-09-26T08:34:14.874Z,81.82
2022-09-26T08:36:42.611Z,82.00
2022-09-26T08:39:12.210Z,80.96
2022-09-26T08:41:54.892Z,78.58
2022-09-26T08:45:02.976Z,79.60
2022-09-26T08:47:49.895Z,79.27
2022-09-26T08:50:27.033Z,78.51
2022-09-26T08:53:11.696Z,77.76
2022-09-26T08:55:45.628Z,77.33
2022-09-26T08:58:19.244Z,75.03
2022-09-26T09:00:52.502Z,76.70
2022-09-26T09:03:44.885Z,75.69
2022-09-26T09:06:14.481Z,74.33
2022-09-26T09:08:45.882Z,73.63
2022-09-26T09:11:43.216Z,72.63
2022-09-26T09:14:41.514Z,73.19
2022-09-26T09:17:37.801Z,70.73
2022-09-26T09:20:51.004Z,71.88
2022-09-26T09:23:54.071Z,73.25
2022-09-26T09:29:49.910Z,72.02
2022-09-26T09:32:22.630Z,70.07
2022-09-26T09:34:53.937Z,68.85
2022-09-26T09:37:26.394Z,70.53
2022-09-26T09:39:55.333Z,71.40
2022-09-26T09:42:30.243Z,69.86
2022-09-26T09:45:13.522Z,70.34
2022-09-26T09:47:41.387Z,67.64
2022-09-26T09:50:27.919Z,69.18
2022-09-26T09:53:21.636Z,66.10
2022-09-26T09:56:07.420Z,66.39
2022-09-26T09:58:58.017Z,65.41
2022-09-26T10:01:34.903Z,65.67
2022-09-26T10:04:24.303Z,64.62
2022-09-26T10:06:52.592Z,64.20
2022-09-26T10:09:38.675Z,65.95
2022-09-26T10:12:34.042Z,64.35
2022-09-26T10:15:07.832Z,63.94
2022-09-26T10:17:36.452Z,62.01
2022-09-26T10:20:04.281Z,63.59
2022-09-26T10:22:37.103Z,64.08
2022-09-26T10:25:09.710Z,64.36
2022-09-26T10:27:40.614Z,64.92
2022-09-26T10:30:27.110Z,64.40
2022-09-26T10:33:00.447Z,63.03
2022-09-26T10:35:41.077Z,64.57
2022-09-26T10:38:23.358Z,64.00
2022-09-26T10:40:55.890Z,64.88
2022-09-26T10:43:31.719Z,64.96
2022-09-26T10:46:12.740Z,65.00
2022-09-26T10:48:49.881Z,65.14
2022-09-26T10:51:30.667Z,63.96
2022-09-26T10:54:05.950Z,62.82
2022-09-26T10:56:39.391Z,62.08
2022-09-26T10:59:11.122Z,62.21
2022-09-26T11:01:44.195Z,62.90
2022-09-26T11:04:16.252Z,62.70
2022-09-26T11:06:45.587Z,60.74
2022-09-26T11:09:21.501Z,59.96
2022-09-26T11:11:51.698Z,59.63
2022-09-26T11:14:31.318Z,60.76
2022-09-26T11:17:00.985Z,60.88
2022-09-26T11:19:45.657Z,58.99
2022-09-26T11:22:21.190Z,60.76
2022-09-26T11:25:20.952Z,61.40
2022-09-26T11:28:12.733Z,62.06
2022-09-26T11:30:48.966Z,62.76
2022-09-26T11:33:19.913Z,63.24
2022-09-26T11:35:54.345Z,62.36
2022-09-26T11:38:51.740Z,62.59
2022-09-26T11:41:38.368Z,62.58
2022-09-26T11:44:27.654Z,63.41
2022-09-26T11:46:55.225Z,63.55
2022-09-26T11:49:44.053Z,63.77
2022-09-26T11:52:34.349Z,60.31
2022-09-26T11:55:19.648Z,62.31
2022-09-26T11:58:03.565Z,60.86
2022-09-26T12:00:49.850Z,60.15
2022-09-26T12:03:54.349Z,60.45
2022-09-26T12:06:34.646Z,60.65
2022-09-26T12:09:33.354Z,62.10
2022-09-26T12:12:11.670Z,62.17
2022-09-26T12:14:41.970Z,60.80
2022-09-26T12:17:42.183Z,61.58
2022-09-26T12:20:47.528Z,60.55
2022-09-26T12:23:38.163Z,59.22
2022-09-26T12:26:21.767Z,58.28
2022-09-26T12:29:14.156Z,59.37
2022-09-26T12:31:49.945Z,58.08
2022-09-26T12:34:38.509Z,57.67
2022-09-26T12:37:33.794Z,56.55
2022-09-26T12:40:23.416Z,54.95
2022-09-26T12:43:10.570Z,49.53
2022-09-26T12:46:20.462Z,49.19
2022-09-26T12:48:50.692Z,50.95
2022-09-26T12:51:45.770Z,48.27
2022-09-26T12:54:22.299Z,48.78
2022-09-26T12:57:20.165Z,50.55
2022-09-26T13:00:15.011Z,47.17
2022-09-26T13:02:46.320Z,47.92
2022-09-26T13:05:16.004Z,50.57
2022-09-26T13:08:03.292Z,48.81
2022-09-26T13:10:39.543Z,49.57
2022-09-26T13:13:23.472Z,50.85
2022-09-26T13:16:19.115Z,51.36
2022-09-26T13:18:57.131Z,52.07
2022-09-26T13:21:54.012Z,51.81
2022-09-26T13:24:26.027Z,52.69
2022-09-26T13:27:02.403Z,52.82
2022-09-26T13:29:38.523Z,52.53
2022-09-26T13:32:27.843Z,53.45
2022-09-26T13:35:14.103Z,53.70
2022-09-26T13:37:47.104Z,54.55
2022-09-26T13:40:23.824Z,55.37
2022-09-26T13:43:24.304Z,55.46
2022-09-26T13:46:24.735Z,57.12
2022-09-26T13:49:18.245Z,59.16
2022-09-26T13:52:07.089Z,60.16
2022-09-26T13:54:58.379Z,62.32
2022-09-26T13:57:48.210Z,64.51
2022-09-26T14:00:30.385Z,68.21
2022-09-26T14:03:19.204Z,69.05
2022-09-26T14:05:53.566Z,71.04
2022-09-26T14:08:52.472Z,72.60
2022-09-26T14:11:19.992Z,72.00
2022-09-26T14:13:48.790Z,72.16
2022-09-26T14:16:28.520Z,72.26
2022-09-26T14:19:15.773Z,72.97
2022-09-26T14:21:59.142Z,74.44
2022-09-26T14:24:31.794Z,75.63
2022-09-26T14:27:12.747Z,76.41
2022-09-26T14:29:40.317Z,76.99
2022-09-26T14:32:11.394Z,76.01
2022-09-26T14:34:58.395Z,75.76
2022-09-26T14:37:26.136Z,76.90
2022-09-26T14:40:11.969Z,75.79
2022-09-26T14:42:45.762Z,75.85
2022-09-26T14:45:46.826Z,75.65
2022-09-26T14:48:38.905Z,75.39
2022-09-26T14:51:12.640Z,74.54
2022-09-26T14:53:49.095Z,73.90
2022-09-26T14:56:28.325Z,74.00
2022-09-26T14:59:17.676Z,73.17
2022-09-26T15:01:46.425Z,71.85
2022-09-26T15:04:19.892Z,71.45
2022-09-26T15:06:58.282Z,71.45
2022-09-26T15:09:39.619Z,71.21
2022-09-26T15:12:40.290Z,70.97
2022-09-26T15:15:24.148Z,70.31
2022-09-26T15:17:57.684Z,70.39
2022-09-26T15:20:26.442Z,71.19
2022-09-26T15:22:58.398Z,72.11
2022-09-26T15:25:33.417Z,71.76
2022-09-26T15:28:02.374Z,70.84
2022-09-26T15:30:38.578Z,68.34
2022-09-26T15:33:07.112Z,69.47
2022-09-26T15:35:35.133Z,70.16
2022-09-26T15:38:10.574Z,69.74
2022-09-26T15:40:38.745Z,69.21
2022-09-26T15:43:23.444Z,68.90
2022-09-26T15:45:59.385Z,66.21
2022-09-26T15:48:32.185Z,66.50
2022-09-26T15:51:36.941Z,65.28
2022-09-26T15:54:11.979Z,65.93
2022-09-26T15:56:48.593Z,66.11
2022-09-26T15:59:36.294Z,66.30
2022-09-26T16:02:24.902Z,65.44
2022-09-26T16:04:54.029Z,66.83
2022-09-26T16:07:27.702Z,66.97
2022-09-26T16:09:57.326Z,67.25
2022-09-26T16:12:30.529Z,67.55
2022-09-26T16:15:05.030Z,67.73
2022-09-26T16:17:49.370Z,68.07
2022-09-26T16:20:17.208Z,67.86
2022-09-26T16:22:53.081Z,68.16
2022-09-26T16:25:25.540Z,68.02
2022-09-26T16:28:02.161Z,68.57
2022-09-26T16:30:32.635Z,68.53
2022-09-26T16:33:03.255Z,68.51
2022-09-26T16:35:34.542Z,68.81
2022-09-26T16:38:04.400Z,69.07
2022-09-26T16:40:35.437Z,69.24
2022-09-26T16:43:12.315Z,69.38
2022-09-26T16:46:15.706Z,69.49
2022-09-26T16:48:54.964Z,69.80
2022-09-26T16:51:26.209Z,69.97
2022-09-26T16:54:21.424Z,70.24
2022-09-26T16:56:53.621Z,70.39
2022-09-26T16:59:29.768Z,70.39
2022-09-26T17:02:03.427Z,70.53
2022-09-26T17:04:34.379Z,70.55
2022-09-26T17:07:09.412Z,70.64
2022-09-26T17:09:37.910Z,70.79
2022-09-26T17:12:11.798Z,71.00
2022-09-26T17:14:42.249Z,71.34
2022-09-26T17:17:17.340Z,71.74
2022-09-26T17:19:48.617Z,71.92
2022-09-26T17:22:18.830Z,72.04
2022-09-26T17:24:46.875Z,72.33
2022-09-26T17:27:17.691Z,72.42
2022-09-26T17:29:49.649Z,72.55
2022-09-26T17:32:31.946Z,72.80
2022-09-26T17:35:02.087Z,72.82
2022-09-26T17:37:30.705Z,72.74
2022-09-26T17:39:58.822Z,72.90
2022-09-26T17:42:26.505Z,73.04
2022-09-26T17:44:55.608Z,73.16
2022-09-26T17:47:24.681Z,73.12
2022-09-26T17:49:55.818Z,72.99
2022-09-26T17:52:30.365Z,73.02
2022-09-26T17:55:07.972Z,73.16
2022-09-26T17:57:40.967Z,73.24
2022-09-26T18:00:11.331Z,73.33
2022-09-26T18:02:45.504Z,73.60
2022-09-26T18:05:29.618Z,73.59
2022-09-26T18:08:02.260Z,73.87
2022-09-26T18:10:34.227Z,73.85
2022-09-26T18:13:12.988Z,74.01
2022-09-26T18:15:42.427Z,74.17
2022-09-26T18:18:19.185Z,74.26
2022-09-26T18:20:50.450Z,74.07
2022-09-26T18:23:31.115Z,73.96
2022-09-26T18:26:00.552Z,73.97
2022-09-26T18:28:29.012Z,73.96
2022-09-26T18:31:00.246Z,73.81
2022-09-26T18:33:30.676Z,73.75
2022-09-26T18:36:00.441Z,73.64
2022-09-26T18:38:28.086Z,73.45
2022-09-26T18:40:59.255Z,73.21
2022-09-26T18:43:35.387Z,73.00
2022-09-26T18:46:09.269Z,72.87
2022-09-26T18:48:38.312Z,72.81
2022-09-26T18:51:06.160Z,72.62
2022-09-26T18:53:38.277Z,72.49
2022-09-26T18:56:24.836Z,72.44
2022-09-26T18:58:53.099Z,72.54
2022-09-26T19:01:31.391Z,72.41
2022-09-26T19:04:01.805Z,72.29
2022-09-26T19:06:37.134Z,72.28
2022-09-26T19:09:07.536Z,72.08
2022-09-26T19:11:36.239Z,72.00
2022-09-26T19:14:14.554Z,71.93
2022-09-26T19:16:43.972Z,71.65
2022-09-26T19:19:12.260Z,71.60
2022-09-26T19:21:52.846Z,71.46
2022-09-26T19:24:54.582Z,71.18
2022-09-26T19:27:32.256Z,70.76
2022-09-26T19:30:13.129Z,70.47
2022-09-26T19:32:43.354Z,70.65
2022-09-26T19:35:33.980Z,70.44
2022-09-26T19:38:03.208Z,69.94
2022-09-26T19:40:31.066Z,69.87
2022-09-26T19:42:59.198Z,69.71
2022-09-26T19:45:32.185Z,69.68
2022-09-26T19:48:00.536Z,69.22
2022-09-26T19:50:30.167Z,68.96
2022-09-26T19:52:59.944Z,68.83
2022-09-26T19:55:31.963Z,68.74
2022-09-26T19:58:21.248Z,68.52
2022-09-26T20:00:54.669Z,68.23
2022-09-26T20:03:43.918Z,68.54
2022-09-26T20:06:26.798Z,68.46
2022-09-26T20:09:01.447Z,68.30
2022-09-26T20:11:29.659Z,68.29
2022-09-26T20:14:16.306Z,68.10
2022-09-26T20:16:44.302Z,68.02
2022-09-26T20:19:22.053Z,68.05
2022-09-26T20:21:49.834Z,68.05
2022-09-26T20:24:20.004Z,68.27
2022-09-26T20:26:49.084Z,68.18
2022-09-26T20:29:17.862Z,68.22
2022-09-26T20:31:46.069Z,68.14
2022-09-26T20:34:13.906Z,68.04
2022-09-26T20:36:47.192Z,67.89
2022-09-26T20:39:34.875Z,67.37
2022-09-26T20:42:03.136Z,67.18
2022-09-26T20:44:34.783Z,67.35
2022-09-26T20:47:05.741Z,67.25
2022-09-26T20:49:46.180Z,67.43
2022-09-26T20:52:21.891Z,67.37
2022-09-26T20:54:50.195Z,66.96
2022-09-26T20:57:18.333Z,67.25
2022-09-26T20:59:46.427Z,66.94
2022-09-26T21:02:31.217Z,66.61
2022-09-26T21:05:01.302Z,66.60
2022-09-26T21:07:32.271Z,66.48
2022-09-26T21:10:00.167Z,67.04
2022-09-26T21:12:27.892Z,67.35
2022-09-26T21:14:55.554Z,68.54
2022-09-26T21:17:28.697Z,69.02
2022-09-26T21:19:57.414Z,70.15
2022-09-26T21:22:27.693Z,70.49
2022-09-26T21:24:56.411Z,70.91
2022-09-26T21:27:24.767Z,70.71
2022-09-26T21:29:52.403Z,71.34
2022-09-26T21:32:23.569Z,71.40
2022-09-26T21:35:04.925Z,72.20
2022-09-26T21:37:33.032Z,72.75
2022-09-26T21:40:00.736Z,73.68
2022-09-26T21:42:28.519Z,73.59
2022-09-26T21:45:02.387Z,74.42
2022-09-26T21:47:30.449Z,74.58
2022-09-26T21:49:58.434Z,74.29
2022-09-26T21:52:38.182Z,74.19
2022-09-26T21:55:07.500Z,74.94
2022-09-26T21:57:38.907Z,75.32
2022-09-26T22:00:10.743Z,75.14
2022-09-26T22:02:42.561Z,75.65
2022-09-26T22:05:11.617Z,75.39
2022-09-26T22:07:39.631Z,75.78
2022-09-26T22:10:07.896Z,75.63
2022-09-26T22:12:35.650Z,75.96
2022-09-26T22:15:03.359Z,76.49
2022-09-26T22:17:31.016Z,76.48
2022-09-26T22:19:58.648Z,76.15
2022-09-26T22:22:27.033Z,76.16
2022-09-26T22:24:55.149Z,76.27
2022-09-26T22:27:22.883Z,76.56
2022-09-26T22:29:50.584Z,76.84
2022-09-26T22:32:18.249Z,77.68
2022-09-26T22:34:45.953Z,77.59
2022-09-26T22:37:13.659Z,77.57
2022-09-26T22:39:41.351Z,77.34
2022-09-26T22:42:09.551Z,77.40
2022-09-26T22:44:37.260Z,77.66
2022-09-26T22:47:05.171Z,78.21
2022-09-26T22:49:33.587Z,79.12
2022-09-26T22:52:01.519Z,79.32
2022-09-26T22:54:29.367Z,78.95
2022-09-26T22:56:57.103Z,79.54
2022-09-26T22:59:24.867Z,80.52
2022-09-26T23:01:53.058Z,80.78
2022-09-26T23:04:21.286Z,81.62
2022-09-26T23:06:49.298Z,81.28
